Time;durP1;ratioP1;P1;durP2;ratioP2;P2;SDS_P1;SDS_P2;PMS_P1;PMS_P2;Temp;Humidity;BMP_temperature;BMP_pressure;BME280_temperature;BME280_humidity;BME280_pressure;Samples;Min_cycle;Max_cycle;Signal;HPM_P1;HPM_P2
2021/07/12 00:00:43;;;;;;;56.35;39.40;;;;;;;;;;4990939;28;20214;-71
2021/07/12 00:03:08;;;;;;;54.17;37.75;;;;;;;;;;4987122;28;20253;-71
2021/07/12 00:05:34;;;;;;;52.35;36.88;;;;;;;;;;4994684;28;20676;-71
2021/07/12 00:07:59;;;;;;;53.85;37.42;;;;;;;;;;4992584;28;20179;-71
2021/07/12 00:10:25;;;;;;;64.25;39.50;;;;;;;;;;4992203;28;20269;-70
2021/07/12 00:12:51;;;;;;;53.15;37.65;;;;;;;;;;4992926;28;20172;-71
2021/07/12 00:15:17;;;;;;;54.70;37.80;;;;;;;;;;4996639;28;20214;-69
2021/07/12 00:17:42;;;;;;;55.20;37.72;;;;;;;;;;4996034;28;20180;-72
2021/07/12 00:20:08;;;;;;;51.55;36.90;;;;;;;;;;4997400;28;20671;-72
2021/07/12 00:22:34;;;;;;;53.15;37.17;;;;;;;;;;4994486;28;20191;-69
2021/07/12 00:24:59;;;;;;;46.70;35.85;;;;;;;;;;4997982;28;20230;-69
2021/07/12 00:27:25;;;;;;;51.92;38.28;;;;;;;;;;4997670;28;20176;-69
2021/07/12 00:29:51;;;;;;;53.25;37.78;;;;;;;;;;5013711;28;20633;-71
2021/07/12 00:32:16;;;;;;;56.20;38.65;;;;;;;;;;5005126;28;20184;-72
2021/07/12 00:34:42;;;;;;;57.38;40.53;;;;;;;;;;5011259;28;20274;-72
2021/07/12 00:37:07;;;;;;;50.00;36.60;;;;;;;;;;5010613;28;20186;-69
2021/07/12 00:39:32;;;;;;;58.47;40.65;;;;;;;;;;5005013;28;20163;-70
2021/07/12 00:41:57;;;;;;;54.42;38.17;;;;;;;;;;5006393;28;20172;-71
2021/07/12 00:44:23;;;;;;;56.05;38.15;;;;;;;;;;5007231;28;20194;-71
2021/07/12 00:46:48;;;;;;;54.22;37.20;;;;;;;;;;5004349;28;20245;-71
2021/07/12 00:49:13;;;;;;;55.15;36.22;;;;;;;;;;4996921;28;20258;-71
2021/07/12 00:51:38;;;;;;;51.22;37.45;;;;;;;;;;5005827;28;20190;-71
2021/07/12 00:54:03;;;;;;;50.83;38.15;;;;;;;;;;5005253;28;20250;-71
2021/07/12 00:56:29;;;;;;;55.60;38.15;;;;;;;;;;5000335;28;20667;-71
2021/07/12 00:58:54;;;;;;;51.70;36.80;;;;;;;;;;4998184;28;20190;-71
2021/07/12 01:01:19;;;;;;;56.40;38.72;;;;;;;;;;4997257;28;20645;-71
2021/07/12 01:03:45;;;;;;;49.63;36.07;;;;;;;;;;5001391;28;20214;-71
2021/07/12 01:06:10;;;;;;;50.03;35.95;;;;;;;;;;5003133;28;20534;-71
2021/07/12 01:08:35;;;;;;;53.42;37.40;;;;;;;;;;5005527;28;20175;-70
2021/07/12 01:11:13;;;;;;;48.25;34.70;;;;;;;;;;5006907;28;20179;-70
2021/07/12 01:13:47;;;;;;;47.38;35.50;;;;;;;;;;5013608;23;20199;-73
2021/07/12 01:16:19;;;;;;;47.05;35.97;;;;;;;;;;4988420;28;20371;-73
2021/07/12 01:18:52;;;;;;;45.40;35.45;;;;;;;;;;5003494;28;20179;-73
2021/07/12 01:21:17;;;;;;;53.13;37.05;;;;;;;;;;4989670;28;20187;-73
2021/07/12 01:24:01;;;;;;;51.72;35.13;;;;;;;;;;4980827;28;20214;-73
2021/07/12 01:26:38;;;;;;;51.92;35.80;;;;;;;;;;4972595;28;20527;-73
2021/07/12 01:29:09;;;;;;;47.08;33.00;;;;;;;;;;4975127;28;20251;-73
2021/07/12 01:31:40;;;;;;;48.65;35.28;;;;;;;;;;4953326;28;20256;-72
2021/07/12 01:34:14;;;;;;;44.67;34.22;;;;;;;;;;4956348;28;20200;-72
2021/07/12 01:36:41;;;;;;;51.17;35.50;;;;;;;;;;4957583;28;20184;-73
2021/07/12 01:39:08;;;;;;;47.15;33.35;;;;;;;;;;4962139;28;20192;-71
2021/07/12 01:41:42;;;;;;;49.38;35.40;;;;;;;;;;4957065;28;20190;-72
2021/07/12 01:44:10;;;;;;;55.17;36.60;;;;;;;;;;4956702;28;20254;-72
2021/07/12 01:46:41;;;;;;;48.47;33.45;;;;;;;;;;4955951;28;20215;-71
2021/07/12 01:49:13;;;;;;;55.38;39.35;;;;;;;;;;4960324;28;20612;-72
2021/07/12 01:51:51;;;;;;;49.60;34.30;;;;;;;;;;4955738;28;20173;-72
2021/07/12 01:54:30;;;;;;;50.65;35.63;;;;;;;;;;4962351;28;21684;-72
2021/07/12 01:56:58;;;;;;;56.15;38.53;;;;;;;;;;4955252;28;20279;-72
2021/07/12 01:59:29;;;;;;;49.92;35.38;;;;;;;;;;4962466;28;20327;-75
2021/07/12 02:01:55;;;;;;;52.63;34.95;;;;;;;;;;4959289;28;20195;-72
2021/07/12 02:04:25;;;;;;;45.83;34.20;;;;;;;;;;4954804;28;20306;-71
2021/07/12 02:06:50;;;;;;;53.08;36.78;;;;;;;;;;4956067;28;20212;-73
2021/07/12 02:09:16;;;;;;;54.10;37.55;;;;;;;;;;4958141;28;20791;-72
2021/07/12 02:11:41;;;;;;;56.63;38.33;;;;;;;;;;4954987;28;20755;-72
2021/07/12 02:14:07;;;;;;;57.22;39.03;;;;;;;;;;4964410;28;20243;-72
2021/07/12 02:16:34;;;;;;;50.17;36.50;;;;;;;;;;4956676;28;20220;-72
2021/07/12 02:18:59;;;;;;;53.20;36.03;;;;;;;;;;4958659;28;20267;-73
2021/07/12 02:21:25;;;;;;;55.65;37.47;;;;;;;;;;4956089;28;20258;-73
2021/07/12 02:23:50;;;;;;;52.40;37.20;;;;;;;;;;4953815;28;20204;-72
2021/07/12 02:26:16;;;;;;;52.15;36.45;;;;;;;;;;4954053;28;20768;-72
2021/07/12 02:28:44;;;;;;;47.97;34.53;;;;;;;;;;4955749;28;20188;-72
2021/07/12 02:31:10;;;;;;;64.43;40.85;;;;;;;;;;4954583;28;20179;-73
2021/07/12 02:33:36;;;;;;;46.72;34.30;;;;;;;;;;4956962;28;20279;-73
2021/07/12 02:36:02;;;;;;;52.50;36.40;;;;;;;;;;4954449;28;20188;-73
2021/07/12 02:38:28;;;;;;;61.63;40.20;;;;;;;;;;4958920;28;20172;-72
2021/07/12 02:40:53;;;;;;;58.85;37.78;;;;;;;;;;4956813;28;20948;-72
2021/07/12 02:43:19;;;;;;;61.03;39.45;;;;;;;;;;4955157;28;20179;-72
2021/07/12 02:45:45;;;;;;;69.22;43.03;;;;;;;;;;4954801;28;20731;-72
2021/07/12 02:48:11;;;;;;;61.78;39.70;;;;;;;;;;4956813;28;20375;-73
2021/07/12 02:50:38;;;;;;;68.05;40.70;;;;;;;;;;4955237;28;20180;-72
2021/07/12 02:53:06;;;;;;;66.55;41.95;;;;;;;;;;4959738;28;20223;-72
2021/07/12 02:55:31;;;;;;;70.07;44.45;;;;;;;;;;4948843;28;20204;-73
2021/07/12 02:57:57;;;;;;;72.53;45.45;;;;;;;;;;4963313;28;20184;-73
2021/07/12 03:00:23;;;;;;;68.30;42.97;;;;;;;;;;4954023;28;20194;-73
2021/07/12 03:02:48;;;;;;;62.03;39.70;;;;;;;;;;4952834;28;20184;-72
2021/07/12 03:05:13;;;;;;;68.18;43.40;;;;;;;;;;4957598;28;20242;-72
2021/07/12 03:07:54;;;;;;;76.28;46.33;;;;;;;;;;4953414;28;20255;-72
2021/07/12 03:10:20;;;;;;;73.07;44.47;;;;;;;;;;4957328;28;20176;-73
2021/07/12 03:12:46;;;;;;;70.38;42.28;;;;;;;;;;4957469;28;20216;-72
2021/07/12 03:15:11;;;;;;;72.33;45.07;;;;;;;;;;4953284;28;20306;-73
2021/07/12 03:17:57;;;;;;;72.70;44.15;;;;;;;;;;4954122;28;20860;-73
2021/07/12 03:20:24;;;;;;;65.18;41.33;;;;;;;;;;4954844;28;20665;-73
2021/07/12 03:22:50;;;;;;;70.05;43.47;;;;;;;;;;4950078;28;20184;-72
2021/07/12 03:25:19;;;;;;;86.60;48.97;;;;;;;;;;4954690;28;20216;-73
2021/07/12 03:27:45;;;;;;;81.38;46.65;;;;;;;;;;4954100;28;20172;-73
2021/07/12 03:30:11;;;;;;;61.80;38.05;;;;;;;;;;4957771;28;20184;-73
2021/07/12 03:32:36;;;;;;;81.38;46.92;;;;;;;;;;4953777;28;20194;-72
2021/07/12 03:35:01;;;;;;;77.80;47.40;;;;;;;;;;4959430;28;20677;-73
2021/07/12 03:37:27;;;;;;;77.25;46.28;;;;;;;;;;4955612;28;20669;-73
2021/07/12 03:39:52;;;;;;;81.90;48.05;;;;;;;;;;4960318;28;20626;-73
2021/07/12 03:42:18;;;;;;;81.00;47.92;;;;;;;;;;4955511;28;20309;-73
2021/07/12 03:44:44;;;;;;;84.70;50.97;;;;;;;;;;4968521;28;20218;-72
2021/07/12 03:47:22;;;;;;;76.63;48.97;;;;;;;;;;4937759;28;20381;-73
2021/07/12 03:49:49;;;;;;;80.38;47.35;;;;;;;;;;4952057;28;20179;-73
2021/07/12 03:52:14;;;;;;;76.22;48.00;;;;;;;;;;4957120;28;20267;-73
2021/07/12 03:54:39;;;;;;;75.30;46.40;;;;;;;;;;4953382;28;20200;-72
2021/07/12 03:57:05;;;;;;;73.45;47.83;;;;;;;;;;4954214;28;20188;-73
2021/07/12 03:59:30;;;;;;;68.03;45.08;;;;;;;;;;4950552;28;20942;-73
2021/07/12 04:01:55;;;;;;;72.57;48.45;;;;;;;;;;4952722;28;20199;-73
2021/07/12 04:04:20;;;;;;;63.70;43.03;;;;;;;;;;4972271;28;20208;-72
2021/07/12 04:06:45;;;;;;;61.80;43.53;;;;;;;;;;4957216;28;20445;-73
2021/07/12 04:09:11;;;;;;;62.10;45.50;;;;;;;;;;4959742;28;20453;-73
2021/07/12 04:11:36;;;;;;;62.85;43.90;;;;;;;;;;4957146;28;20418;-73
2021/07/12 04:14:02;;;;;;;59.25;41.90;;;;;;;;;;4961986;28;20303;-73
2021/07/12 04:16:27;;;;;;;61.80;44.17;;;;;;;;;;4956992;28;20190;-73
2021/07/12 04:18:52;;;;;;;60.72;43.92;;;;;;;;;;4953724;28;20188;-73
2021/07/12 04:21:18;;;;;;;57.75;43.58;;;;;;;;;;4957994;28;20646;-73
2021/07/12 04:23:43;;;;;;;63.17;42.17;;;;;;;;;;4958364;28;20286;-73
2021/07/12 04:26:08;;;;;;;57.63;42.65;;;;;;;;;;4958612;28;20251;-73
2021/07/12 04:28:33;;;;;;;54.08;40.40;;;;;;;;;;4961551;28;20185;-73
2021/07/12 04:30:58;;;;;;;57.23;41.43;;;;;;;;;;4958279;28;20210;-73
2021/07/12 04:33:25;;;;;;;52.30;39.65;;;;;;;;;;4955242;28;20442;-72
2021/07/12 04:35:50;;;;;;;52.83;41.65;;;;;;;;;;4955385;28;20271;-73
2021/07/12 04:38:16;;;;;;;47.78;38.83;;;;;;;;;;4960159;28;20188;-73
2021/07/12 04:40:41;;;;;;;44.33;35.22;;;;;;;;;;4957651;28;20555;-72
2021/07/12 04:43:07;;;;;;;49.97;36.13;;;;;;;;;;4957385;28;20724;-73
2021/07/12 04:45:32;;;;;;;49.35;37.10;;;;;;;;;;4958040;28;20303;-72
2021/07/12 04:47:57;;;;;;;43.80;36.10;;;;;;;;;;4955818;28;20181;-73
2021/07/12 04:50:23;;;;;;;43.57;36.73;;;;;;;;;;4958583;28;20307;-72
2021/07/12 04:52:48;;;;;;;44.00;36.20;;;;;;;;;;4958273;28;20581;-73
2021/07/12 04:55:13;;;;;;;45.30;37.00;;;;;;;;;;4957644;28;20215;-73
2021/07/12 04:57:38;;;;;;;41.72;34.78;;;;;;;;;;4957178;28;20192;-73
2021/07/12 05:00:04;;;;;;;41.78;34.70;;;;;;;;;;4956410;28;20184;-73
2021/07/12 05:02:29;;;;;;;42.90;35.88;;;;;;;;;;4956078;28;20207;-72
2021/07/12 05:04:55;;;;;;;37.95;32.33;;;;;;;;;;4957955;28;20208;-72
2021/07/12 05:07:20;;;;;;;38.47;32.42;;;;;;;;;;4958335;28;20200;-73
2021/07/12 05:09:45;;;;;;;35.67;31.45;;;;;;;;;;4970619;28;20262;-73
2021/07/12 05:12:11;;;;;;;33.47;29.88;;;;;;;;;;4957940;28;20188;-73
2021/07/12 05:14:37;;;;;;;35.75;30.70;;;;;;;;;;4950864;28;20608;-73
2021/07/12 05:17:03;;;;;;;33.88;29.15;;;;;;;;;;4957354;28;20188;-73
2021/07/12 05:19:28;;;;;;;34.40;30.75;;;;;;;;;;4954287;28;20700;-73
2021/07/12 05:21:53;;;;;;;33.37;29.63;;;;;;;;;;4956117;28;20180;-73
2021/07/12 05:24:19;;;;;;;30.97;27.63;;;;;;;;;;4959950;28;20456;-72
2021/07/12 05:26:44;;;;;;;33.50;29.50;;;;;;;;;;4950993;28;21015;-73
2021/07/12 05:29:09;;;;;;;32.53;28.20;;;;;;;;;;4954169;28;20251;-73
2021/07/12 05:31:35;;;;;;;32.67;27.60;;;;;;;;;;4960194;28;20191;-73
2021/07/12 05:34:00;;;;;;;30.63;27.35;;;;;;;;;;4958682;28;20192;-73
2021/07/12 05:36:25;;;;;;;35.47;29.20;;;;;;;;;;4955639;28;20199;-73
2021/07/12 05:38:50;;;;;;;32.40;29.05;;;;;;;;;;4964272;28;21014;-73
2021/07/12 05:41:15;;;;;;;33.50;29.85;;;;;;;;;;4955552;28;20195;-73
2021/07/12 05:43:41;;;;;;;33.58;29.10;;;;;;;;;;4955119;28;20192;-73
2021/07/12 05:46:06;;;;;;;32.10;28.53;;;;;;;;;;4959993;28;20219;-72
2021/07/12 05:48:31;;;;;;;32.58;28.40;;;;;;;;;;4960344;28;20537;-73
2021/07/12 05:50:57;;;;;;;30.88;27.13;;;;;;;;;;4957420;28;20191;-73
2021/07/12 05:53:22;;;;;;;30.17;26.95;;;;;;;;;;4958949;28;20626;-73
2021/07/12 05:55:47;;;;;;;30.70;27.40;;;;;;;;;;4966345;28;20902;-73
2021/07/12 05:58:12;;;;;;;29.60;26.42;;;;;;;;;;4957841;28;20190;-73
2021/07/12 06:00:37;;;;;;;29.05;26.15;;;;;;;;;;4956684;28;20311;-71
2021/07/12 06:03:03;;;;;;;28.88;25.92;;;;;;;;;;4957794;28;20208;-71
2021/07/12 06:05:29;;;;;;;29.70;26.50;;;;;;;;;;4956442;28;20741;-73
2021/07/12 06:07:54;;;;;;;31.10;27.80;;;;;;;;;;4956827;28;20185;-73
2021/07/12 06:10:19;;;;;;;28.13;24.98;;;;;;;;;;4955512;28;20182;-72
2021/07/12 06:12:45;;;;;;;26.02;23.33;;;;;;;;;;4954861;28;20798;-72
2021/07/12 06:15:10;;;;;;;29.63;25.67;;;;;;;;;;4954299;28;20787;-73
2021/07/12 06:17:35;;;;;;;25.08;22.27;;;;;;;;;;4956985;28;20297;-73
2021/07/12 06:20:01;;;;;;;24.60;22.05;;;;;;;;;;4954899;28;20180;-72
2021/07/12 06:22:26;;;;;;;24.98;22.52;;;;;;;;;;4954827;28;20628;-73
2021/07/12 06:24:51;;;;;;;24.17;21.75;;;;;;;;;;4953516;28;20204;-73
2021/07/12 06:27:16;;;;;;;23.27;20.97;;;;;;;;;;4956039;28;20212;-74
2021/07/12 06:29:42;;;;;;;22.55;20.30;;;;;;;;;;4959688;28;21114;-73
2021/07/12 06:32:07;;;;;;;22.17;19.65;;;;;;;;;;4954669;28;20208;-73
2021/07/12 06:34:33;;;;;;;19.37;17.37;;;;;;;;;;4956440;28;20215;-74
2021/07/12 06:36:58;;;;;;;18.88;17.08;;;;;;;;;;4956393;28;20430;-74
2021/07/12 06:39:23;;;;;;;19.50;17.70;;;;;;;;;;4960788;28;20191;-73
2021/07/12 06:41:48;;;;;;;19.73;17.93;;;;;;;;;;4955374;28;20867;-73
2021/07/12 06:44:13;;;;;;;20.70;18.50;;;;;;;;;;4956628;28;20461;-74
2021/07/12 06:46:38;;;;;;;19.00;17.10;;;;;;;;;;4955830;28;20800;-72
2021/07/12 06:49:04;;;;;;;18.87;17.07;;;;;;;;;;4968358;28;20181;-72
2021/07/12 06:51:29;;;;;;;18.23;16.27;;;;;;;;;;4952877;28;20426;-73
2021/07/12 06:53:55;;;;;;;18.77;16.88;;;;;;;;;;4953768;28;20196;-73
2021/07/12 06:56:20;;;;;;;16.33;14.85;;;;;;;;;;4953689;28;20340;-73
2021/07/12 06:58:45;;;;;;;15.23;13.75;;;;;;;;;;4953013;28;20184;-73
2021/07/12 07:01:11;;;;;;;14.17;12.87;;;;;;;;;;4954276;28;20271;-69
2021/07/12 07:03:36;;;;;;;16.02;13.35;;;;;;;;;;4958294;28;22592;-73
2021/07/12 07:06:01;;;;;;;15.30;13.90;;;;;;;;;;4955167;28;20696;-73
2021/07/12 07:08:26;;;;;;;15.48;14.07;;;;;;;;;;4957913;28;20447;-73
2021/07/12 07:10:51;;;;;;;16.48;14.90;;;;;;;;;;4948463;28;20196;-73
2021/07/12 07:13:17;;;;;;;14.97;13.67;;;;;;;;;;4958794;28;20219;-73
2021/07/12 07:15:43;;;;;;;15.23;13.80;;;;;;;;;;4998261;23;20889;-68
2021/07/12 07:18:08;;;;;;;16.60;14.98;;;;;;;;;;4991846;28;20199;-69
2021/07/12 07:20:33;;;;;;;16.43;14.83;;;;;;;;;;4989487;28;20190;-70
2021/07/12 07:22:58;;;;;;;15.02;13.43;;;;;;;;;;4988887;28;20428;-69
2021/07/12 07:25:24;;;;;;;15.27;13.63;;;;;;;;;;4977983;28;20215;-69
2021/07/12 07:27:49;;;;;;;15.45;13.95;;;;;;;;;;4973573;28;20263;-69
2021/07/12 07:30:14;;;;;;;15.48;13.88;;;;;;;;;;4972724;28;20184;-69
2021/07/12 07:32:40;;;;;;;15.30;13.88;;;;;;;;;;4985415;28;20176;-69
2021/07/12 07:35:06;;;;;;;16.00;14.50;;;;;;;;;;4970199;28;20199;-69
2021/07/12 07:37:31;;;;;;;16.40;14.75;;;;;;;;;;4980305;28;20192;-69
2021/07/12 07:39:56;;;;;;;15.95;14.35;;;;;;;;;;4992879;28;20611;-69
2021/07/12 07:42:22;;;;;;;15.27;13.85;;;;;;;;;;4974404;28;20230;-69
2021/07/12 07:44:47;;;;;;;14.15;12.75;;;;;;;;;;4977980;28;20673;-70
2021/07/12 07:47:12;;;;;;;14.93;13.70;;;;;;;;;;4975420;28;20211;-69
2021/07/12 07:49:38;;;;;;;14.57;12.47;;;;;;;;;;4974963;28;20691;-69
2021/07/12 07:52:03;;;;;;;14.97;13.50;;;;;;;;;;4972742;28;20487;-70
2021/07/12 07:54:28;;;;;;;15.57;14.18;;;;;;;;;;4976104;28;20457;-69
2021/07/12 07:56:54;;;;;;;15.50;14.00;;;;;;;;;;4980833;28;20688;-69
2021/07/12 07:59:19;;;;;;;18.08;16.30;;;;;;;;;;4974917;28;20498;-69
2021/07/12 08:01:45;;;;;;;16.33;14.80;;;;;;;;;;4979300;28;20226;-70
2021/07/12 08:04:10;;;;;;;17.25;15.45;;;;;;;;;;4987814;28;20483;-69
2021/07/12 08:06:35;;;;;;;15.07;13.73;;;;;;;;;;4970934;28;20266;-70
2021/07/12 08:09:01;;;;;;;16.33;14.87;;;;;;;;;;4979960;28;20439;-69
2021/07/12 08:11:26;;;;;;;15.77;14.20;;;;;;;;;;4973258;28;20422;-69
2021/07/12 08:13:52;;;;;;;14.25;12.65;;;;;;;;;;4976244;28;20188;-69
2021/07/12 08:16:17;;;;;;;16.90;15.10;;;;;;;;;;4976432;28;20196;-70
2021/07/12 08:18:42;;;;;;;16.30;14.52;;;;;;;;;;4976418;28;20222;-70
2021/07/12 08:21:08;;;;;;;14.48;12.93;;;;;;;;;;4972888;28;20188;-70
2021/07/12 08:23:33;;;;;;;15.90;14.25;;;;;;;;;;4974075;28;20270;-69
2021/07/12 08:25:58;;;;;;;15.57;14.10;;;;;;;;;;4973126;28;20211;-69
2021/07/12 08:28:25;;;;;;;12.93;11.63;;;;;;;;;;4973957;28;20176;-71
2021/07/12 08:30:51;;;;;;;13.90;12.50;;;;;;;;;;4979305;28;20681;-69
2021/07/12 08:33:16;;;;;;;14.18;12.77;;;;;;;;;;4978728;28;20190;-68
2021/07/12 08:35:41;;;;;;;12.53;11.27;;;;;;;;;;4973274;28;20216;-69
2021/07/12 08:38:07;;;;;;;11.07;9.97;;;;;;;;;;4975687;28;21006;-70
2021/07/12 08:40:33;;;;;;;10.77;9.88;;;;;;;;;;4973563;28;20186;-68
2021/07/12 08:42:58;;;;;;;10.15;9.25;;;;;;;;;;4973132;28;20187;-68
2021/07/12 08:45:25;;;;;;;11.50;10.40;;;;;;;;;;4974864;28;20265;-68
2021/07/12 08:47:50;;;;;;;11.18;10.18;;;;;;;;;;4974460;28;20554;-70
2021/07/12 08:50:16;;;;;;;9.35;8.50;;;;;;;;;;4972219;28;20191;-69
2021/07/12 08:52:42;;;;;;;10.15;9.25;;;;;;;;;;4971755;28;20673;-71
2021/07/12 08:55:08;;;;;;;7.63;6.93;;;;;;;;;;4971923;28;20689;-69
2021/07/12 08:57:33;;;;;;;8.27;7.47;;;;;;;;;;4972408;28;20207;-70
2021/07/12 08:59:58;;;;;;;8.13;6.97;;;;;;;;;;4973540;28;20233;-68
2021/07/12 09:02:23;;;;;;;9.20;8.27;;;;;;;;;;4992498;28;20183;-69
2021/07/12 09:04:57;;;;;;;6.88;6.20;;;;;;;;;;4976015;28;20685;-69
2021/07/12 09:07:24;;;;;;;5.35;4.93;;;;;;;;;;4972628;28;20237;-69
2021/07/12 09:10:04;;;;;;;6.65;6.00;;;;;;;;;;4970299;28;20238;-70
2021/07/12 09:12:44;;;;;;;7.75;6.50;;;;;;;;;;4990409;28;20270;-69
2021/07/12 09:15:10;;;;;;;5.72;5.13;;;;;;;;;;4975005;28;20212;-68
2021/07/12 09:17:37;;;;;;;4.95;4.55;;;;;;;;;;4973970;28;20203;-68
2021/07/12 09:20:07;;;;;;;4.50;4.10;;;;;;;;;;4975684;28;20188;-68
2021/07/12 09:22:34;;;;;;;4.38;3.97;;;;;;;;;;4973331;28;20269;-69
2021/07/12 09:25:00;;;;;;;6.57;4.15;;;;;;;;;;4970378;28;20199;-69
2021/07/12 09:27:26;;;;;;;5.85;3.75;;;;;;;;;;4969838;28;20215;-69
2021/07/12 09:29:52;;;;;;;6.38;5.75;;;;;;;;;;4974216;28;20180;-68
2021/07/12 09:32:18;;;;;;;6.07;5.15;;;;;;;;;;4977750;28;20231;-68
2021/07/12 09:34:46;;;;;;;5.25;4.85;;;;;;;;;;4971930;28;20718;-69
2021/07/12 09:37:12;;;;;;;5.68;5.05;;;;;;;;;;4972866;28;21004;-70
2021/07/12 09:39:41;;;;;;;5.57;4.90;;;;;;;;;;4977229;28;20274;-69
2021/07/12 09:42:26;;;;;;;4.40;3.92;;;;;;;;;;4973110;28;20226;-69
2021/07/12 09:44:56;;;;;;;4.00;3.47;;;;;;;;;;4976202;28;20315;-69
2021/07/12 09:47:23;;;;;;;6.22;4.57;;;;;;;;;;4972098;28;20271;-69
2021/07/12 09:49:49;;;;;;;5.05;4.55;;;;;;;;;;4972746;28;20186;-69
2021/07/12 09:52:16;;;;;;;5.65;5.13;;;;;;;;;;4973777;28;20918;-68
2021/07/12 09:54:42;;;;;;;4.53;4.13;;;;;;;;;;4973215;28;20661;-69
2021/07/12 09:57:12;;;;;;;4.13;3.65;;;;;;;;;;4973296;28;20192;-69
2021/07/12 09:59:51;;;;;;;4.20;3.40;;;;;;;;;;4970866;28;20210;-69
2021/07/12 10:02:18;;;;;;;2.95;2.50;;;;;;;;;;4971096;28;20710;-69
2021/07/12 10:04:44;;;;;;;4.32;3.55;;;;;;;;;;4970245;28;20486;-68
2021/07/12 10:07:09;;;;;;;6.78;5.18;;;;;;;;;;4978159;28;20294;-71
2021/07/12 10:09:35;;;;;;;3.97;3.67;;;;;;;;;;4972993;28;20676;-70
2021/07/12 10:12:00;;;;;;;4.20;3.80;;;;;;;;;;4972668;28;20171;-69
2021/07/12 10:14:25;;;;;;;3.03;2.70;;;;;;;;;;4971654;28;20728;-69
2021/07/12 10:16:51;;;;;;;10.77;4.33;;;;;;;;;;4972564;28;20920;-69
2021/07/12 10:19:17;;;;;;;4.80;3.15;;;;;;;;;;4972100;28;21132;-69
2021/07/12 10:21:46;;;;;;;3.83;2.55;;;;;;;;;;4968552;28;20282;-70
2021/07/12 10:24:11;;;;;;;4.53;2.47;;;;;;;;;;4971551;28;20462;-70
2021/07/12 10:26:40;;;;;;;4.20;2.30;;;;;;;;;;4970390;28;20211;-68
2021/07/12 10:29:16;;;;;;;2.40;2.20;;;;;;;;;;4989844;28;20295;-69
2021/07/12 10:32:05;;;;;;;3.08;2.78;;;;;;;;;;4971378;28;20692;-68
2021/07/12 10:34:37;;;;;;;3.90;2.67;;;;;;;;;;4971993;28;20226;-69
2021/07/12 10:37:03;;;;;;;2.92;2.67;;;;;;;;;;4968908;28;20195;-69
2021/07/12 10:39:47;;;;;;;3.43;3.13;;;;;;;;;;4973876;28;20191;-71
2021/07/12 10:42:32;;;;;;;2.38;1.98;;;;;;;;;;4976075;28;20475;-69
2021/07/12 10:45:08;;;;;;;2.17;1.63;;;;;;;;;;4975668;28;20221;-68
2021/07/12 10:47:45;;;;;;;4.03;1.95;;;;;;;;;;4969072;28;20245;-68
2021/07/12 10:50:29;;;;;;;2.80;2.20;;;;;;;;;;4978520;28;20555;-68
2021/07/12 10:52:54;;;;;;;3.63;1.83;;;;;;;;;;4983874;28;20183;-70
2021/07/12 10:55:33;;;;;;;2.23;1.90;;;;;;;;;;4990292;28;20207;-69
2021/07/12 10:58:16;;;;;;;2.95;2.13;;;;;;;;;;4969994;28;20440;-68
2021/07/12 11:00:41;;;;;;;2.53;2.15;;;;;;;;;;4974311;28;20182;-69
2021/07/12 11:03:26;;;;;;;1.90;1.80;;;;;;;;;;4972482;28;20184;-69
2021/07/12 11:05:52;;;;;;;2.05;1.95;;;;;;;;;;4968609;28;21319;-69
2021/07/12 11:08:46;;;;;;;2.97;1.67;;;;;;;;;;4972332;28;20502;-69
2021/07/12 11:11:13;;;;;;;2.30;2.10;;;;;;;;;;4973022;28;20196;-69
2021/07/12 11:14:07;;;;;;;3.15;2.72;;;;;;;;;;4968180;28;20187;-68
2021/07/12 11:16:37;;;;;;;3.13;2.78;;;;;;;;;;4966908;28;20286;-69
2021/07/12 11:19:17;;;;;;;2.03;1.80;;;;;;;;;;4968527;28;20230;-69
2021/07/12 11:21:43;;;;;;;2.13;2.00;;;;;;;;;;4969666;28;20179;-69
2021/07/12 11:24:08;;;;;;;5.07;1.83;;;;;;;;;;4971045;28;20214;-69
2021/07/12 11:26:34;;;;;;;3.50;2.90;;;;;;;;;;4973922;28;20202;-68
2021/07/12 11:29:01;;;;;;;4.50;2.47;;;;;;;;;;4971330;28;20190;-68
2021/07/12 11:31:38;;;;;;;3.42;3.03;;;;;;;;;;4973024;28;20222;-69
2021/07/12 11:34:04;;;;;;;2.30;2.08;;;;;;;;;;4967459;28;20720;-68
2021/07/12 11:36:30;;;;;;;4.03;2.25;;;;;;;;;;4972315;28;20241;-69
2021/07/12 11:38:55;;;;;;;2.23;2.00;;;;;;;;;;4972130;28;20183;-68
2021/07/12 11:41:23;;;;;;;4.07;2.03;;;;;;;;;;4970954;28;20179;-69
2021/07/12 11:44:07;;;;;;;1.67;1.58;;;;;;;;;;4974472;28;20560;-69
2021/07/12 11:46:32;;;;;;;3.35;2.05;;;;;;;;;;4968604;28;20765;-69
2021/07/12 11:49:07;;;;;;;3.15;2.75;;;;;;;;;;4973832;28;20179;-69
2021/07/12 11:51:33;;;;;;;2.55;2.30;;;;;;;;;;4971421;28;20210;-69
2021/07/12 11:53:58;;;;;;;4.00;2.58;;;;;;;;;;4968401;28;20325;-69
2021/07/12 11:56:23;;;;;;;3.77;2.80;;;;;;;;;;4967812;28;20566;-69
2021/07/12 11:58:58;;;;;;;2.58;2.38;;;;;;;;;;4970057;28;20444;-69
2021/07/12 12:01:23;;;;;;;2.45;1.83;;;;;;;;;;4973807;28;20205;-69
2021/07/12 12:03:58;;;;;;;2.60;2.40;;;;;;;;;;4969042;28;20551;-69
2021/07/12 12:06:24;;;;;;;2.47;2.28;;;;;;;;;;4973648;28;20285;-70
2021/07/12 12:08:56;;;;;;;3.63;2.50;;;;;;;;;;4968235;28;20175;-70
2021/07/12 12:11:28;;;;;;;3.92;2.92;;;;;;;;;;4968267;28;20191;-70
2021/07/12 12:13:54;;;;;;;3.97;3.00;;;;;;;;;;4969452;28;20211;-70
2021/07/12 12:16:23;;;;;;;2.88;2.67;;;;;;;;;;4968784;28;21902;-69
2021/07/12 12:18:48;;;;;;;3.20;2.90;;;;;;;;;;4985937;28;20188;-69
2021/07/12 12:21:13;;;;;;;3.60;3.30;;;;;;;;;;4971786;28;20659;-70
2021/07/12 12:23:38;;;;;;;3.57;3.27;;;;;;;;;;4974659;28;21796;-70
2021/07/12 12:26:04;;;;;;;3.83;2.97;;;;;;;;;;4971213;28;20238;-69
2021/07/12 12:28:31;;;;;;;3.70;2.67;;;;;;;;;;4972481;28;20233;-70
2021/07/12 12:30:58;;;;;;;3.67;3.03;;;;;;;;;;4974177;28;20184;-70
2021/07/12 12:33:28;;;;;;;4.22;3.30;;;;;;;;;;4972301;28;20184;-70
2021/07/12 12:35:57;;;;;;;2.97;2.78;;;;;;;;;;4973067;28;20354;-70
2021/07/12 12:38:22;;;;;;;3.78;2.92;;;;;;;;;;4975808;28;20263;-70
2021/07/12 12:40:55;;;;;;;3.37;2.63;;;;;;;;;;4977982;28;20214;-70
2021/07/12 12:43:22;;;;;;;3.45;2.97;;;;;;;;;;4972646;28;20441;-69
2021/07/12 12:45:51;;;;;;;3.00;2.70;;;;;;;;;;4972320;28;20331;-70
2021/07/12 12:48:32;;;;;;;2.78;2.58;;;;;;;;;;4976562;28;20558;-69
2021/07/12 12:50:57;;;;;;;3.65;2.88;;;;;;;;;;4974340;28;20270;-69
2021/07/12 12:53:30;;;;;;;4.00;2.85;;;;;;;;;;4978120;28;20310;-70
2021/07/12 12:55:55;;;;;;;4.10;3.05;;;;;;;;;;4971549;28;20207;-70
2021/07/12 12:58:25;;;;;;;3.70;3.10;;;;;;;;;;4977591;28;20233;-69
2021/07/12 13:00:50;;;;;;;2.92;2.70;;;;;;;;;;4974163;28;20847;-69
2021/07/12 13:03:16;;;;;;;3.60;3.30;;;;;;;;;;4971867;28;20199;-69
2021/07/12 13:05:41;;;;;;;2.90;2.70;;;;;;;;;;4971358;28;20529;-69
2021/07/12 13:08:06;;;;;;;3.00;2.80;;;;;;;;;;4974922;28;20184;-69
2021/07/12 13:10:34;;;;;;;4.05;2.88;;;;;;;;;;4971120;28;20618;-70
2021/07/12 13:13:03;;;;;;;3.33;3.05;;;;;;;;;;4975680;28;20195;-69
2021/07/12 13:15:30;;;;;;;3.60;3.40;;;;;;;;;;4992874;23;20231;-74
2021/07/12 13:18:00;;;;;;;3.60;3.30;;;;;;;;;;4993891;28;20211;-73
2021/07/12 13:20:27;;;;;;;5.95;3.25;;;;;;;;;;4987462;28;20736;-74
2021/07/12 13:22:53;;;;;;;3.97;3.33;;;;;;;;;;4987034;28;20187;-73
2021/07/12 13:25:20;;;;;;;4.55;3.53;;;;;;;;;;4980648;28;20219;-72
2021/07/12 13:27:56;;;;;;;5.88;3.95;;;;;;;;;;4976766;28;20176;-73
2021/07/12 13:30:26;;;;;;;3.95;3.65;;;;;;;;;;4974749;28;20247;-73
2021/07/12 13:32:52;;;;;;;3.55;3.25;;;;;;;;;;4977235;28;20171;-73
2021/07/12 13:35:28;;;;;;;3.83;3.38;;;;;;;;;;4973329;28;20196;-73
2021/07/12 13:37:54;;;;;;;4.28;3.83;;;;;;;;;;4982280;28;20858;-73
2021/07/12 13:40:21;;;;;;;6.68;3.92;;;;;;;;;;4973557;28;20180;-73
2021/07/12 13:42:47;;;;;;;4.35;3.95;;;;;;;;;;4979961;28;21713;-70
2021/07/12 13:45:12;;;;;;;3.88;3.40;;;;;;;;;;4975846;28;20293;-72
2021/07/12 13:47:38;;;;;;;4.72;4.00;;;;;;;;;;4980923;28;20634;-73
2021/07/12 13:50:04;;;;;;;4.20;3.85;;;;;;;;;;4974643;28;20165;-72
2021/07/12 13:52:29;;;;;;;5.95;5.45;;;;;;;;;;4975505;28;20183;-73
2021/07/12 13:54:55;;;;;;;5.80;5.30;;;;;;;;;;4977251;28;20214;-73
2021/07/12 13:57:20;;;;;;;6.97;5.30;;;;;;;;;;4977371;28;20183;-74
2021/07/12 13:59:47;;;;;;;6.47;5.88;;;;;;;;;;4975575;28;20460;-75
2021/07/12 14:02:13;;;;;;;6.63;5.38;;;;;;;;;;4978836;28;20176;-74
2021/07/12 14:04:39;;;;;;;5.32;4.82;;;;;;;;;;4975497;28;20199;-74
2021/07/12 14:07:04;;;;;;;4.03;3.53;;;;;;;;;;4979155;28;20237;-75
2021/07/12 14:09:30;;;;;;;3.42;3.10;;;;;;;;;;4973513;28;20263;-74
2021/07/12 14:11:56;;;;;;;4.43;3.53;;;;;;;;;;4978895;28;20338;-74
2021/07/12 14:14:21;;;;;;;5.47;4.22;;;;;;;;;;4971146;28;20573;-73
2021/07/12 14:16:46;;;;;;;6.03;4.30;;;;;;;;;;4979109;28;20187;-74
2021/07/12 14:19:12;;;;;;;5.57;5.07;;;;;;;;;;4985833;28;20184;-75
2021/07/12 14:21:38;;;;;;;5.28;4.78;;;;;;;;;;4988001;28;20711;-72
2021/07/12 14:24:03;;;;;;;7.53;5.57;;;;;;;;;;4990745;28;20180;-71
2021/07/12 14:26:29;;;;;;;4.72;4.32;;;;;;;;;;4986845;28;20707;-74